NCAR-RAP Real-Time Weather Data

Output produced by METARs form (17 October 2018  15:36 UTC)
found at http://weather.rap.ucar.edu/surface/
 
RJFK 171200Z 02003KT 9999 FEW030 14/13 Q1013 RMK 1CU030 A2992
RJFK 171100Z 36003KT 9999 FEW030 16/13 Q1013 RMK 1CU030 A2993
RJFK 171000Z 36004KT 9999 FEW030 SCT050 17/12 Q1013 RMK 1CU030 3SC050 A2992
RJFK 170900Z 01005KT 9999 FEW030 SCT040 17/13 Q1012 RMK 1CU030 4CU040 A2989 VOLCANIC ASH CLOUD S
RJFK 170800Z 35005KT 9999 FEW030 BKN040 19/13 Q1011 RMK 1CU030 6CU040 A2987
RJFK 170700Z 21006KT 180V260 9999 FEW030 BKN040 BKN/// 22/11 Q1011 RMK 1CU030 5CU040 A2987
RJFK 170600Z 18004KT 110V260 9999 SCT040 BKN/// 22/12 Q1010 RMK 4CU040 A2985
RJFK 170500Z 14004KT 030V190 9999 FEW030 BKN/// 22/11 Q1011 RMK 1CU030 A2986
RJFK 170400Z 10003KT 060V160 9999 FEW030 SCT/// 21/12 Q1011 RMK 1CU030 A2985
RJFK 170300Z 11003KT 060V180 9999 FEW030 21/11 Q1011 RMK 1CU030 A2987
RJFK 170200Z 01005KT 340V050 9999 FEW035 BKN/// 19/14 Q1012 RMK 1CU035 A2989
RJFK 170100Z VRB02KT 9999 FEW035 BKN/// 17/14 Q1013
RJFK 170000Z 33005KT 9999 FEW035 BKN/// 16/13 Q1013
RJFK 162300Z 36004KT 9999 FEW020 BKN/// 14/14 Q1012
RJFK 162200Z 34006KT 9999 FEW030 SCT120 BKN/// 12/12 Q1012
RJFK 162100Z 36003KT 9999 FEW030 SCT170 BKN/// 12/12 Q1012 RMK 1CU030 3AC170 A2989
RJFK 161200Z 03003KT 9999 FEW030 SCT070 BKN100 17/16 Q1011 RMK 1CU030 3AC070 7AC100 A2988
RJFK 161100Z 09003KT 9999 FEW025 BKN100 18/14 Q1011 RMK 1CU025 7AC100 A2987
RJFK 161000Z VRB01KT 9999 BKN025 BKN120 18/16 Q1011 RMK 6CU025 7AC120 A2987
RJFK 160900Z 00000KT 9999 FEW030 SCT100 BKN120 18/16 Q1011 RMK 1CU030 3AC100 7AC120 A2986
RJFK 160800Z 25003KT 220V290 9999 FEW030 BKN100 19/15 Q1011 RMK 1CU030 7AC100 A2986
RJFK 160700Z 13002KT 9999 FEW030 BKN080 20/13 Q1011 RMK 1CU030 7AC080 A2985
RJFK 160600Z 13002KT 9999 FEW030 BKN080 20/13 Q1010 RMK 1CU030 7AC080 A2985
RJFK 160500Z 11003KT 070V150 9999 FEW030 BKN080 20/14 Q1011 RMK 2CU030 7AC080 A2985
RJFK 160400Z 14003KT 080V190 9999 FEW030 SCT090 BKN130 20/13 Q1011 RMK 2CU030 4AC090 7AC130 A2988
RJFK 160300Z 10003KT 040V140 9999 FEW035 SCT090 BKN130 20/14 Q1012 RMK 2CU035 4AC090 7AC130 A2990
RJFK 160200Z VRB01KT 9999 FEW020 BKN090 19/13 Q1013 RMK 1CU020 7AC090 A2993
RJFK 160100Z 36004KT 330V040 9999 FEW020 BKN090 17/16 Q1014 RMK 1CU020 7AC090 A2995
RJFK 160000Z 03002KT 9999 FEW020 SCT100 BKN120 16/16 Q1014 RMK 1CU020 3AC100 7AC120 A2995
RJFK 152300Z 02003KT 360V070 9999 FEW020 SCT080 BKN120 15/15 Q1014 RMK 1CU020 3AC080 7AC120 A2995
RJFK 152200Z 01003KT 330V050 9999 FEW001 BKN080 15/15 Q1014 RMK 1ST001 7AC080 A2996
RJFK 152100Z 01003KT 9999 -RA FEW020 SCT060 OVC070 15/15 Q1014 RMK 1CU020 3SC060 8AS070 A2996
RJFK 151245Z 34003KT 320V030 9999 R34/0900VP2000U FEW003 BKN140 15/15 Q1016 RMK 1ST003 7AC140 A3002
RJFK 151243Z 35003KT 320V030 9999 R34/0900VP2000U FEW003 BKN140 15/15 Q1016 RMK 1ST003 7AC140 A3002
RJFK 151236Z 36003KT 9999 R34/0500V1800N BR NSC 15/15 Q1016 RMK 5AC140 A3002 4000S
RJFK 151228Z 01003KT 3000 R34/0500VP2000N BR SCT001 BKN004 15/15 Q1016 RMK 3ST001 7ST004 A3003 1000S
RJFK 151223Z 02004KT 0400 R34/0500VP2000D FG BKN001 OVC003 15/15 Q1016 RMK 6ST001 8ST003 A3002
RJFK 151218Z 02004KT 0800 R34/P2000N FG SCT001 BKN006 BKN008 15/15 Q1016 RMK 3ST001 6ST006 7ST008 A3002
RJFK 151200Z 03004KT CAVOK 15/15 Q1016 RMK A3002
RJFK 151100Z 09004KT 9999 FEW025 BKN090 17/17 Q1016 RMK 1CU025 6AC090 A3002
RJFK 151000Z 14002KT 9999 FEW030 BKN090 18/16 Q1016 RMK 1CU030 7AC090 A3002
RJFK 150900Z 12002KT 9999 FEW030 BKN080 18/17 Q1016 RMK 1CU030 7AC080 A3003
RJFK 150800Z VRB02KT 9999 FEW030 BKN070 20/16 Q1016 RMK 1CU030 7AC070 A3001
RJFK 150700Z VRB02KT 9999 FEW030 BKN090 20/15 Q1016 RMK 1CU030 7AC090 A3001 VOLCANIC ASH CLOUD S
RJFK 150600Z 36003KT 330V040 9999 FEW030 BKN090 20/16 Q1016 RMK 1CU030 7AC090 A3000 VOLCANIC ASH CLOUD S
RJFK 150500Z 35003KT 240V030 9999 FEW030 SCT060 BKN080 19/15 Q1016 RMK 1CU030 3SC060 6AC080 A3001
RJFK 150400Z VRB02KT 9999 FEW020 SCT060 BKN080 20/16 Q1017 RMK 2CU020 3SC060 6AC080 A3003 VOLCANIC ASH CLOUD S